North Beach, Maryland
Current Conditions -  °F | °C
As of 3:54 AM on Saturday 29 Nov 2014 (Local Time) from KNAK Reporting Station
Broken Clouds Broken Clouds  
Wind Chill: -1°   Ceiling: 10000
Heat Index: -1°   Visibility: 10mi
Dew Point: -3°   Wind: 0mph
Humidity: 82%   Direction: NA
Pressure: 30.32"   Gusts: NA
Location:  38.71°N, 76.53°W
Report Text: KNAK 290854Z AUTO 00000KT 10SM BKN100 M01/M03 A3032 RMK AO2 SLP269 T10061033 50005
Loading
Personal Weather Stations






























Interactive Weather Map New forecast layout! Learn more

10-Day Weather Forecast

Advertisements
Track Severe Weather on mobile